PWSweather.com
Personal Weather Stations
Station Observations
IPUMONTE2
MontelabbateIT 61025

MontelabbateIT 61025

Lat: 43.848, Lon: 12.7895

Elevation: 196

Station Type: LaCrosse WS3600

http://www.montelabbatemet.altervista.org/

Latest ConditionsUpdated 9:19:07 AM GMT+01:01 Monday, Aug 26, 2019
Currently Today's Max Today's Min Today's Average
Temperature 80.7°F27.1°C 80.7°F27.1°C 66.9°F19.4°C 69.7°F20.9°C
Dew Point 68.7°F20.4°C 69.6°F20.9°C 63.8°F17.7°C 65.4°F18.6°C
Winds Calm Calm 4.6 mph -7.4 kmh - - 2.0 mph 3.2 kmh
Wind Gusts 1.7 mph2.7 kmh 5.5 mph8.9 kmh - -
Humidity 67% 90% 67% 87%
Pressure 29.90 in1012.5 mb 29.90 in1012.5 mb 29.86 in1011.2 mb -
Hour Temp Dew Point Humidity Winds Wind Gusts Pressure Precip Precip Rate Daily Precip Total
09:19 AM 80.7°F27.1°C 68.7°F20.4°C 67% Calm Calm 1.7 mph2.7 kmh 29.90 in1012.5 mb 0.00 in0.0 mm 0.00 in0.0 mm 0.00 in0.0 mm
09:13 AM 80.7°F27.1°C 68.7°F20.4°C 67% Calm Calm -- 29.90 in1012.5 mb 0.00 in0.0 mm 0.00 in0.0 mm 0.00 in0.0 mm
09:00 AM 79.8°F26.6°C 69.6°F20.9°C 68% Calm Calm -- 29.90 in1012.5 mb 0.00 in0.0 mm 0.00 in0.0 mm 0.00 in0.0 mm
08:55 AM 79.1°F26.2°C 68.5°F20.3°C 70% Calm Calm 1.1 mph1.8 kmh 29.90 in1012.5 mb 0.00 in0.0 mm 0.00 in0.0 mm 0.00 in0.0 mm
08:50 AM 78.2°F25.7°C 67.6°F19.8°C 70% Calm Calm 1.1 mph1.8 kmh 29.90 in1012.5 mb 0.00 in0.0 mm 0.00 in0.0 mm 0.00 in0.0 mm
08:45 AM 77.7°F25.4°C 67.5°F19.7°C 71% Calm Calm 2.9 mph4.7 kmh 29.89 in1012.2 mb 0.00 in0.0 mm 0.00 in0.0 mm 0.00 in0.0 mm
08:40 AM 77.3°F25.2°C 67.2°F19.6°C 71% 2.9 mph SW4.7 kmh SW 2.9 mph4.7 kmh 29.89 in1012.2 mb 0.00 in0.0 mm 0.00 in0.0 mm 0.00 in0.0 mm
08:35 AM 77.3°F25.2°C 68.7°F20.4°C 73% 2.2 mph SSW3.5 kmh SSW 2.2 mph3.5 kmh 29.89 in1012.2 mb 0.00 in0.0 mm 0.00 in0.0 mm 0.00 in0.0 mm
08:30 AM 76.8°F24.9°C 68.2°F20.1°C 75% 1.3 mph SE2.1 kmh SE 1.3 mph2.1 kmh 29.89 in1012.2 mb 0.00 in0.0 mm 0.00 in0.0 mm 0.00 in0.0 mm
08:24 AM 76.6°F24.8°C 68.8°F20.4°C 77% Calm Calm -- 29.89 in1012.2 mb 0.00 in0.0 mm 0.00 in0.0 mm 0.00 in0.0 mm
08:20 AM 75.9°F24.4°C 68.9°F20.5°C 79% Calm Calm -- 29.89 in1012.2 mb 0.00 in0.0 mm 0.00 in0.0 mm 0.00 in0.0 mm
08:15 AM 75.3°F24.1°C 68.8°F20.4°C 80% Calm Calm -- 29.89 in1012.2 mb 0.00 in0.0 mm 0.00 in0.0 mm 0.00 in0.0 mm
08:10 AM 74.8°F23.8°C 68.7°F20.4°C 81% Calm Calm -- 29.90 in1012.5 mb 0.00 in0.0 mm 0.00 in0.0 mm 0.00 in0.0 mm
08:05 AM 73.9°F23.3°C 68.1°F20.1°C 82% Calm Calm 1.3 mph2.1 kmh 29.90 in1012.5 mb 0.00 in0.0 mm 0.00 in0.0 mm 0.00 in0.0 mm
08:00 AM 73.4°F23.0°C 67.6°F19.8°C 82% Calm Calm 2.2 mph3.5 kmh 29.89 in1012.2 mb 0.00 in0.0 mm 0.00 in0.0 mm 0.00 in0.0 mm
07:54 AM 72.8°F22.7°C 67.4°F19.7°C 83% 1.9 mph SW3.1 kmh SW 2.2 mph3.5 kmh 29.89 in1012.2 mb 0.00 in0.0 mm 0.00 in0.0 mm 0.00 in0.0 mm
07:49 AM 72.1°F22.3°C 67.0°F19.4°C 84% 1.3 mph SSW2.1 kmh SSW 2.4 mph3.9 kmh 29.89 in1012.2 mb 0.00 in0.0 mm 0.00 in0.0 mm 0.00 in0.0 mm
07:44 AM 71.7°F22.1°C 66.6°F19.2°C 84% 2.3 mph SW3.7 kmh SW 2.4 mph3.9 kmh 29.90 in1012.5 mb 0.00 in0.0 mm 0.00 in0.0 mm 0.00 in0.0 mm
07:39 AM 71.4°F21.9°C 66.6°F19.2°C 85% 2.0 mph SSW3.2 kmh SSW 2.6 mph4.2 kmh 29.90 in1012.5 mb 0.00 in0.0 mm 0.00 in0.0 mm 0.00 in0.0 mm
07:35 AM 70.8°F21.6°C 66.4°F19.1°C 86% 2.4 mph WSW3.9 kmh WSW 2.6 mph4.2 kmh 29.89 in1012.2 mb 0.00 in0.0 mm 0.00 in0.0 mm 0.00 in0.0 mm
07:29 AM 70.5°F21.4°C 66.4°F19.1°C 87% 2.3 mph SSW3.7 kmh SSW 2.6 mph4.2 kmh 29.89 in1012.2 mb 0.00 in0.0 mm 0.00 in0.0 mm 0.00 in0.0 mm
07:24 AM 70.5°F21.4°C 66.4°F19.1°C 87% 2.2 mph SW3.5 kmh SW 2.4 mph3.9 kmh 29.89 in1012.2 mb 0.00 in0.0 mm 0.00 in0.0 mm 0.00 in0.0 mm
07:19 AM 70.1°F21.2°C 66.4°F19.1°C 87% 0.4 mph SSW0.6 kmh SSW 2.4 mph3.9 kmh 29.89 in1012.2 mb 0.00 in0.0 mm 0.00 in0.0 mm 0.00 in0.0 mm
07:14 AM 69.9°F21.1°C 66.2°F19.0°C 88% 2.4 mph WSW3.9 kmh WSW 2.4 mph3.9 kmh 29.89 in1012.2 mb 0.00 in0.0 mm 0.00 in0.0 mm 0.00 in0.0 mm
07:09 AM 69.4°F20.8°C 65.7°F18.7°C 88% 2.3 mph SW3.7 kmh SW 3.8 mph6.1 kmh 29.88 in1011.9 mb 0.00 in0.0 mm 0.00 in0.0 mm 0.00 in0.0 mm
07:04 AM 69.0°F20.6°C 65.6°F18.7°C 89% 2.6 mph SSW4.2 kmh SSW 3.8 mph6.1 kmh 29.88 in1011.9 mb 0.00 in0.0 mm 0.00 in0.0 mm 0.00 in0.0 mm
06:59 AM 68.7°F20.4°C 65.3°F18.5°C 89% 3.8 mph SW6.1 kmh SW 3.8 mph6.1 kmh 29.88 in1011.9 mb 0.00 in0.0 mm 0.00 in0.0 mm 0.00 in0.0 mm
06:54 AM 68.5°F20.3°C 65.1°F18.4°C 89% 3.1 mph SW5.0 kmh SW 3.5 mph5.6 kmh 29.89 in1012.2 mb 0.00 in0.0 mm 0.00 in0.0 mm 0.00 in0.0 mm
06:49 AM 68.1°F20.1°C 64.7°F18.2°C 89% 1.7 mph WSW2.7 kmh WSW 2.9 mph4.7 kmh 29.89 in1012.2 mb 0.00 in0.0 mm 0.00 in0.0 mm 0.00 in0.0 mm
06:44 AM 67.8°F19.9°C 64.7°F18.2°C 90% 2.0 mph SW3.2 kmh SW 3.1 mph5.0 kmh 29.88 in1011.9 mb 0.00 in0.0 mm 0.00 in0.0 mm 0.00 in0.0 mm
06:39 AM 67.6°F19.8°C 64.5°F18.1°C 90% 2.7 mph SW4.3 kmh SW 3.1 mph5.0 kmh 29.88 in1011.9 mb 0.00 in0.0 mm 0.00 in0.0 mm 0.00 in0.0 mm
06:34 AM 67.4°F19.7°C 64.4°F18.0°C 90% 2.5 mph SSW4.0 kmh SSW 3.8 mph6.1 kmh 29.88 in1011.9 mb 0.00 in0.0 mm 0.00 in0.0 mm 0.00 in0.0 mm
06:29 AM 67.2°F19.6°C 64.2°F17.9°C 90% 3.0 mph SSW4.8 kmh SSW 3.8 mph6.1 kmh 29.88 in1011.9 mb 0.00 in0.0 mm 0.00 in0.0 mm 0.00 in0.0 mm
06:24 AM 67.1°F19.5°C 64.0°F17.8°C 90% 2.2 mph SSW3.5 kmh SSW 4.2 mph6.8 kmh 29.88 in1011.9 mb 0.00 in0.0 mm 0.00 in0.0 mm 0.00 in0.0 mm
06:19 AM 67.1°F19.5°C 64.0°F17.8°C 90% 2.2 mph SSW3.5 kmh SSW 4.2 mph6.8 kmh 29.88 in1011.9 mb 0.00 in0.0 mm 0.00 in0.0 mm 0.00 in0.0 mm
06:14 AM 66.9°F19.4°C 63.8°F17.7°C 90% 3.3 mph SSW5.3 kmh SSW 3.8 mph6.1 kmh 29.88 in1011.9 mb 0.00 in0.0 mm 0.00 in0.0 mm 0.00 in0.0 mm
06:09 AM 66.9°F19.4°C 63.8°F17.7°C 90% Calm Calm 3.5 mph5.6 kmh 29.88 in1011.9 mb 0.00 in0.0 mm 0.00 in0.0 mm 0.00 in0.0 mm
06:04 AM 66.9°F19.4°C 63.8°F17.7°C 90% 2.2 mph SSW3.5 kmh SSW 3.8 mph6.1 kmh 29.88 in1011.9 mb 0.00 in0.0 mm 0.00 in0.0 mm 0.00 in0.0 mm
05:59 AM 66.9°F19.4°C 63.8°F17.7°C 90% 3.5 mph SW5.6 kmh SW 4.6 mph7.4 kmh 29.88 in1011.9 mb 0.00 in0.0 mm 0.00 in0.0 mm 0.00 in0.0 mm
05:54 AM 66.9°F19.4°C 63.8°F17.7°C 90% 4.1 mph SSW6.6 kmh SSW 4.6 mph7.4 kmh 29.88 in1011.9 mb 0.00 in0.0 mm 0.00 in0.0 mm 0.00 in0.0 mm
05:49 AM 66.9°F19.4°C 63.8°F17.7°C 90% 2.6 mph SW4.2 kmh SW 3.3 mph5.3 kmh 29.87 in1011.5 mb 0.00 in0.0 mm 0.00 in0.0 mm 0.00 in0.0 mm
05:44 AM 66.9°F19.4°C 63.8°F17.7°C 90% 2.3 mph SW3.7 kmh SW 2.9 mph4.7 kmh 29.87 in1011.5 mb 0.00 in0.0 mm 0.00 in0.0 mm 0.00 in0.0 mm
05:39 AM 66.9°F19.4°C 63.8°F17.7°C 90% 2.2 mph SW3.5 kmh SW 2.6 mph4.2 kmh 29.87 in1011.5 mb 0.00 in0.0 mm 0.00 in0.0 mm 0.00 in0.0 mm
05:34 AM 67.1°F19.5°C 64.0°F17.8°C 90% 1.3 mph SSW2.1 kmh SSW 3.5 mph5.6 kmh 29.87 in1011.5 mb 0.00 in0.0 mm 0.00 in0.0 mm 0.00 in0.0 mm
05:29 AM 67.1°F19.5°C 64.0°F17.8°C 90% 2.7 mph SW4.3 kmh SW 3.5 mph5.6 kmh 29.87 in1011.5 mb 0.00 in0.0 mm 0.00 in0.0 mm 0.00 in0.0 mm
05:24 AM 67.1°F19.5°C 64.0°F17.8°C 90% 2.3 mph SW3.7 kmh SW 5.5 mph8.9 kmh 29.87 in1011.5 mb 0.00 in0.0 mm 0.00 in0.0 mm 0.00 in0.0 mm
05:19 AM 66.9°F19.4°C 63.8°F17.7°C 90% 3.8 mph SSW6.1 kmh SSW 5.5 mph8.9 kmh 29.87 in1011.5 mb 0.00 in0.0 mm 0.00 in0.0 mm 0.00 in0.0 mm
05:14 AM 67.1°F19.5°C 64.0°F17.8°C 90% 3.5 mph SSW5.6 kmh SSW 4.2 mph6.8 kmh 29.87 in1011.5 mb 0.00 in0.0 mm 0.00 in0.0 mm 0.00 in0.0 mm
05:09 AM 67.1°F19.5°C 64.0°F17.8°C 90% 3.9 mph SSW6.3 kmh SSW 4.2 mph6.8 kmh 29.87 in1011.5 mb 0.00 in0.0 mm 0.00 in0.0 mm 0.00 in0.0 mm
05:04 AM 67.1°F19.5°C 64.0°F17.8°C 90% 2.4 mph SSW3.9 kmh SSW 2.4 mph3.9 kmh 29.86 in1011.2 mb 0.00 in0.0 mm 0.00 in0.0 mm 0.00 in0.0 mm
04:59 AM 67.1°F19.5°C 64.0°F17.8°C 90% 1.2 mph SW1.9 kmh SW 2.9 mph4.7 kmh 29.87 in1011.5 mb 0.00 in0.0 mm 0.00 in0.0 mm 0.00 in0.0 mm
04:54 AM 67.2°F19.6°C 64.2°F17.9°C 90% 1.3 mph W2.1 kmh W 3.3 mph5.3 kmh 29.86 in1011.2 mb 0.00 in0.0 mm 0.00 in0.0 mm 0.00 in0.0 mm
04:49 AM 67.1°F19.5°C 64.0°F17.8°C 90% 3.1 mph SSW5.0 kmh SSW 3.8 mph6.1 kmh 29.87 in1011.5 mb 0.00 in0.0 mm 0.00 in0.0 mm 0.00 in0.0 mm
04:44 AM 67.1°F19.5°C 64.0°F17.8°C 90% 2.3 mph SW3.7 kmh SW 3.8 mph6.1 kmh 29.87 in1011.5 mb 0.00 in0.0 mm 0.00 in0.0 mm 0.00 in0.0 mm
04:39 AM 67.1°F19.5°C 64.0°F17.8°C 90% 3.8 mph SSW6.1 kmh SSW 3.8 mph6.1 kmh 29.86 in1011.2 mb 0.00 in0.0 mm 0.00 in0.0 mm 0.00 in0.0 mm
04:34 AM 66.9°F19.4°C 63.8°F17.7°C 90% 1.5 mph S2.4 kmh S 3.1 mph5.0 kmh 29.86 in1011.2 mb 0.00 in0.0 mm 0.00 in0.0 mm 0.00 in0.0 mm
04:29 AM 67.1°F19.5°C 64.0°F17.8°C 90% 2.9 mph SW4.7 kmh SW 3.8 mph6.1 kmh 29.87 in1011.5 mb 0.00 in0.0 mm 0.00 in0.0 mm 0.00 in0.0 mm
04:24 AM 67.2°F19.6°C 64.2°F17.9°C 90% 3.8 mph SSW6.1 kmh SSW 3.8 mph6.1 kmh 29.86 in1011.2 mb 0.00 in0.0 mm 0.00 in0.0 mm 0.00 in0.0 mm
04:19 AM 67.6°F19.8°C 64.2°F17.9°C 90% 1.7 mph SSW2.7 kmh SSW 2.4 mph3.9 kmh 29.87 in1011.5 mb 0.00 in0.0 mm 0.00 in0.0 mm 0.00 in0.0 mm
04:14 AM 67.6°F19.8°C 64.2°F17.9°C 90% Calm Calm 3.3 mph5.3 kmh 29.87 in1011.5 mb 0.00 in0.0 mm 0.00 in0.0 mm 0.00 in0.0 mm
04:09 AM 67.6°F19.8°C 64.2°F17.9°C 90% 1.6 mph WSW2.6 kmh WSW 3.8 mph6.1 kmh 29.87 in1011.5 mb 0.00 in0.0 mm 0.00 in0.0 mm 0.00 in0.0 mm
04:04 AM 67.6°F19.8°C 64.2°F17.9°C 90% 3.1 mph SSW5.0 kmh SSW 3.8 mph6.1 kmh 29.87 in1011.5 mb 0.00 in0.0 mm 0.00 in0.0 mm 0.00 in0.0 mm
03:57 AM 67.6°F19.8°C 64.2°F17.9°C 90% 2.3 mph SSW3.7 kmh SSW 3.8 mph6.1 kmh 29.87 in1011.5 mb 0.00 in0.0 mm 0.00 in0.0 mm 0.00 in0.0 mm
03:52 AM 67.6°F19.8°C 64.2°F17.9°C 90% 2.2 mph SSW3.5 kmh SSW 3.5 mph5.6 kmh 29.87 in1011.5 mb 0.00 in0.0 mm 0.00 in0.0 mm 0.00 in0.0 mm
03:47 AM 67.6°F19.8°C 64.2°F17.9°C 89% 1.5 mph SW2.4 kmh SW 3.5 mph5.6 kmh 29.87 in1011.5 mb 0.00 in0.0 mm 0.00 in0.0 mm 0.00 in0.0 mm
03:42 AM 67.8°F19.9°C 64.4°F18.0°C 89% 2.8 mph SW4.5 kmh SW 4.2 mph6.8 kmh 29.87 in1011.5 mb 0.00 in0.0 mm 0.00 in0.0 mm 0.00 in0.0 mm
03:37 AM 67.8°F19.9°C 64.4°F18.0°C 89% 3.3 mph S5.3 kmh S 4.2 mph6.8 kmh 29.87 in1011.5 mb 0.00 in0.0 mm 0.00 in0.0 mm 0.00 in0.0 mm
03:32 AM 67.8°F19.9°C 64.4°F18.0°C 89% 3.3 mph SSW5.3 kmh SSW 5.3 mph8.5 kmh 29.87 in1011.5 mb 0.00 in0.0 mm 0.00 in0.0 mm 0.00 in0.0 mm
03:27 AM 67.8°F19.9°C 64.4°F18.0°C 89% 4.6 mph SSW7.4 kmh SSW 5.3 mph8.5 kmh 29.87 in1011.5 mb 0.00 in0.0 mm 0.00 in0.0 mm 0.00 in0.0 mm
03:22 AM 67.8°F19.9°C 64.4°F18.0°C 89% 1.5 mph SSW2.4 kmh SSW 2.4 mph3.9 kmh 29.87 in1011.5 mb 0.00 in0.0 mm 0.00 in0.0 mm 0.00 in0.0 mm
03:17 AM 68.0°F20.0°C 64.6°F18.1°C 89% 1.9 mph SW3.1 kmh SW 2.4 mph3.9 kmh 29.87 in1011.5 mb 0.00 in0.0 mm 0.00 in0.0 mm 0.00 in0.0 mm
03:12 AM 68.0°F20.0°C 64.6°F18.1°C 89% 2.4 mph SSW3.9 kmh SSW 2.6 mph4.2 kmh 29.87 in1011.5 mb 0.00 in0.0 mm 0.00 in0.0 mm 0.00 in0.0 mm
03:07 AM 67.8°F19.9°C 64.4°F18.0°C 89% 2.3 mph SSW3.7 kmh SSW 2.6 mph4.2 kmh 29.87 in1011.5 mb 0.00 in0.0 mm 0.00 in0.0 mm 0.00 in0.0 mm
03:02 AM 68.1°F20.1°C 64.7°F18.2°C 89% 2.2 mph S3.5 kmh S 2.6 mph4.2 kmh 29.87 in1011.5 mb 0.00 in0.0 mm 0.00 in0.0 mm 0.00 in0.0 mm
02:57 AM 68.1°F20.1°C 64.7°F18.2°C 89% 2.2 mph SW3.5 kmh SW 4.0 mph6.4 kmh 29.86 in1011.2 mb 0.00 in0.0 mm 0.00 in0.0 mm 0.00 in0.0 mm
02:51 AM 68.1°F20.1°C 64.7°F18.2°C 89% 2.7 mph SW4.3 kmh SW 4.0 mph6.4 kmh 29.87 in1011.5 mb 0.00 in0.0 mm 0.00 in0.0 mm 0.00 in0.0 mm
02:43 AM 68.3°F20.2°C 64.9°F18.3°C 89% 1.4 mph SW2.3 kmh SW 2.6 mph4.2 kmh 29.87 in1011.5 mb 0.00 in0.0 mm 0.00 in0.0 mm 0.00 in0.0 mm
02:35 AM 68.3°F20.2°C 64.9°F18.3°C 89% 2.5 mph SW4.0 kmh SW 3.8 mph6.1 kmh 29.87 in1011.5 mb 0.00 in0.0 mm 0.00 in0.0 mm 0.00 in0.0 mm
02:27 AM 68.5°F20.3°C 65.1°F18.4°C 89% 2.2 mph SW3.5 kmh SW 2.9 mph4.7 kmh 29.87 in1011.5 mb 0.00 in0.0 mm 0.00 in0.0 mm 0.00 in0.0 mm
02:18 AM 68.5°F20.3°C 65.1°F18.4°C 89% 2.8 mph SW4.5 kmh SW 2.9 mph4.7 kmh 29.86 in1011.2 mb 0.00 in0.0 mm 0.00 in0.0 mm 0.00 in0.0 mm
02:10 AM 68.5°F20.3°C 65.1°F18.4°C 89% 0.7 mph SW1.1 kmh SW 3.3 mph5.3 kmh 29.86 in1011.2 mb 0.00 in0.0 mm 0.00 in0.0 mm 0.00 in0.0 mm
02:01 AM 68.7°F20.4°C 65.3°F18.5°C 89% 2.9 mph SW4.7 kmh SW 2.9 mph4.7 kmh 29.87 in1011.5 mb 0.00 in0.0 mm 0.00 in0.0 mm 0.00 in0.0 mm
01:54 AM 68.7°F20.4°C 65.3°F18.5°C 89% 2.0 mph SSW3.2 kmh SSW 3.1 mph5.0 kmh 29.87 in1011.5 mb 0.00 in0.0 mm 0.00 in0.0 mm 0.00 in0.0 mm
01:49 AM 68.7°F20.4°C 65.3°F18.5°C 89% 2.6 mph SSW4.2 kmh SSW 3.5 mph5.6 kmh 29.87 in1011.5 mb 0.00 in0.0 mm 0.00 in0.0 mm 0.00 in0.0 mm
01:44 AM 68.7°F20.4°C 65.3°F18.5°C 89% 2.2 mph SSW3.5 kmh SSW 3.5 mph5.6 kmh 29.87 in1011.5 mb 0.00 in0.0 mm 0.00 in0.0 mm 0.00 in0.0 mm
01:39 AM 68.7°F20.4°C 65.3°F18.5°C 89% 2.8 mph SSW4.5 kmh SSW 3.5 mph5.6 kmh 29.87 in1011.5 mb 0.00 in0.0 mm 0.00 in0.0 mm 0.00 in0.0 mm
01:34 AM 68.9°F20.5°C 65.1°F18.4°C 89% 3.3 mph SW5.3 kmh SW 3.5 mph5.6 kmh 29.87 in1011.5 mb 0.00 in0.0 mm 0.00 in0.0 mm 0.00 in0.0 mm
01:29 AM 68.9°F20.5°C 65.1°F18.4°C 88% 2.4 mph SW3.9 kmh SW 2.6 mph4.2 kmh 29.87 in1011.5 mb 0.00 in0.0 mm 0.00 in0.0 mm 0.00 in0.0 mm
01:24 AM 69.0°F20.6°C 65.3°F18.5°C 88% 1.5 mph S2.4 kmh S 2.4 mph3.9 kmh 29.87 in1011.5 mb 0.00 in0.0 mm 0.00 in0.0 mm 0.00 in0.0 mm
01:19 AM 69.0°F20.6°C 65.3°F18.5°C 88% 2.2 mph SSW3.5 kmh SSW 2.4 mph3.9 kmh 29.87 in1011.5 mb 0.00 in0.0 mm 0.00 in0.0 mm 0.00 in0.0 mm
01:14 AM 69.4°F20.8°C 65.7°F18.7°C 88% 1.7 mph SW2.7 kmh SW 2.2 mph3.5 kmh 29.87 in1011.5 mb 0.00 in0.0 mm 0.00 in0.0 mm 0.00 in0.0 mm
01:09 AM 69.4°F20.8°C 65.7°F18.7°C 88% 0.4 mph SSW0.6 kmh SSW 1.5 mph2.4 kmh 29.87 in1011.5 mb 0.00 in0.0 mm 0.00 in0.0 mm 0.00 in0.0 mm
01:04 AM 69.6°F20.9°C 65.8°F18.8°C 88% 0.7 mph S1.1 kmh S 1.5 mph2.4 kmh 29.88 in1011.9 mb 0.00 in0.0 mm 0.00 in0.0 mm 0.00 in0.0 mm
12:59 AM 69.6°F20.9°C 65.8°F18.8°C 88% 1.3 mph SSW2.1 kmh SSW 2.2 mph3.5 kmh 29.88 in1011.9 mb 0.00 in0.0 mm 0.00 in0.0 mm 0.00 in0.0 mm
12:54 AM 69.6°F20.9°C 65.8°F18.8°C 88% 1.7 mph SSW2.7 kmh SSW 2.2 mph3.5 kmh 29.88 in1011.9 mb 0.00 in0.0 mm 0.00 in0.0 mm 0.00 in0.0 mm
12:49 AM 69.8°F21.0°C 66.0°F18.9°C 88% 1.4 mph SSW2.3 kmh SSW 2.2 mph3.5 kmh 29.88 in1011.9 mb 0.00 in0.0 mm 0.00 in0.0 mm 0.00 in0.0 mm
12:44 AM 69.6°F20.9°C 65.8°F18.8°C 88% 1.7 mph SSW2.7 kmh SSW 3.8 mph6.1 kmh 29.88 in1011.9 mb 0.00 in0.0 mm 0.00 in0.0 mm 0.00 in0.0 mm
12:39 AM 69.8°F21.0°C 66.0°F18.9°C 88% 3.3 mph SW5.3 kmh SW 3.8 mph6.1 kmh 29.87 in1011.5 mb 0.00 in0.0 mm 0.00 in0.0 mm 0.00 in0.0 mm
12:34 AM 69.8°F21.0°C 65.7°F18.7°C 88% 2.0 mph SW3.2 kmh SW 2.4 mph3.9 kmh 29.87 in1011.5 mb 0.00 in0.0 mm 0.00 in0.0 mm 0.00 in0.0 mm
12:29 AM 69.9°F21.1°C 65.8°F18.8°C 87% 2.1 mph SSW3.4 kmh SSW 2.4 mph3.9 kmh 29.88 in1011.9 mb 0.00 in0.0 mm 0.00 in0.0 mm 0.00 in0.0 mm
12:24 AM 69.9°F21.1°C 65.8°F18.8°C 87% 1.9 mph SSW3.1 kmh SSW 2.4 mph3.9 kmh 29.88 in1011.9 mb 0.00 in0.0 mm 0.00 in0.0 mm 0.00 in0.0 mm
12:19 AM 70.1°F21.2°C 66.0°F18.9°C 87% 1.4 mph WSW2.3 kmh WSW 1.5 mph2.4 kmh 29.88 in1011.9 mb 0.00 in0.0 mm 0.00 in0.0 mm 0.00 in0.0 mm
12:14 AM 70.1°F21.2°C 66.0°F18.9°C 87% Calm Calm 2.2 mph3.5 kmh 29.87 in1011.5 mb 0.00 in0.0 mm 0.00 in0.0 mm 0.00 in0.0 mm
12:09 AM 70.3°F21.3°C 66.2°F19.0°C 87% 1.9 mph SSW3.1 kmh SSW 2.4 mph3.9 kmh 29.87 in1011.5 mb 0.00 in0.0 mm 0.00 in0.0 mm 0.00 in0.0 mm
12:04 AM 70.3°F21.3°C 66.2°F19.0°C 87% 0.8 mph S1.3 kmh S 2.9 mph4.7 kmh 29.88 in1011.9 mb 0.00 in0.0 mm 0.00 in0.0 mm 0.00 in0.0 mm